Stamford Pioneer — VRJD7 — position and weather

sailwx.info

Track history (hours):
 
Tides and Currents Weather Stations Pressure Air Temp Water Temp Dewpoint Dewpoint Depression Visibility Wind Speed Wind Dir Waves Ship Positions

Stamford Pioneer

Last reported at 2016-May-29 01:32 UTC. Time now 2016-May-30 16:28 UTC.
Position N 48°57' W 005°43'.

Length 180 m; draft 10 m.

Type: Cargo ship. MMSI: 477462800.

Date/timePositionNaut miles runAvg speedWind from/ knotsBaromVisibWave heightAir tempDewpointWater temp
2016-May-29 01:32N 48°57' W 005°43'1514.3
2016-May-29 00:29N 49°05' W 005°24'8311.9
2016-May-28 17:32N 49°47' W 003°35'1212.6
2016-May-28 16:33N 49°53' W 003°18'1212.4
2016-May-28 15:33N 49°59' W 003°01'1211.7
2016-May-28 14:33N 50°03' W 002°44'9111.1
2016-May-28 06:20N 50°26' W 000°26'1013.1
2016-May-28 05:33N 50°28' W 000°11'1312.6
2016-May-28 04:33N 50°32' E 000°08'4610.9
2016-May-28 00:18N 50°53' E 001°13'912.5
2016-May-27 23:33N 50°59' E 001°24'1414.3
2016-May-27 22:34N 51°10' E 001°40'1313.3
2016-May-27 21:33N 51°20' E 001°52'1211.8
2016-May-27 20:33N 51°31' E 002°02'1111.1
2016-May-27 19:33N 51°39' E 002°14'1110.4
2016-May-27 18:31N 51°47' E 002°25'7011.3
2016-May-27 12:21N 52°42' E 003°36'2712.2
2016-May-27 10:10N 53°01' E 004°07'910.8
2016-May-27 09:19N 53°07' E 004°18'3210.0
2016-May-27 06:09N 53°36' E 004°40'911.8
2016-May-27 05:25N 53°44' E 004°45'1112.1
2016-May-27 04:28N 53°55' E 004°52'1111.9
2016-May-27 03:33N 54°05' E 004°58'1211.7
2016-May-27 02:33N 54°15' E 005°09'1211.6
2016-May-27 01:33N 54°24' E 005°22'10411.2
2016-May-26 16:17N 55°54' E 006°53'911.3
2016-May-26 15:30N 56°02' E 007°00'4811.4
2016-May-26 11:16N 56°44' E 007°43'10711.0
2016-May-26 01:29N 57°47' E 010°24'1112.3
2016-May-26 00:33N 57°47' E 010°46'8 8.4
2016-May-25 23:33N 57°40' E 010°39'9 0.6
2016-May-25 09:09N 57°37' E 010°55'711.8
2016-May-25 08:33N 57°34' E 011°07'1111.0
2016-May-25 07:33N 57°29' E 011°26'1010.3
2016-May-25 06:34N 57°19' E 011°32'1110.4
2016-May-25 05:33N 57°09' E 011°39'1010.5
2016-May-25 04:33N 56°60' E 011°45'1110.9
2016-May-25 03:33N 56°49' E 011°52'10 9.5
2016-May-25 02:29N 56°40' E 011°44'1011.1
2016-May-25 01:33N 56°33' E 011°30'9 9.5
2016-May-25 00:33N 56°27' E 011°17'10 8.9
2016-May-24 23:26N 56°19' E 011°06'58 9.9
2016-May-24 17:33N 55°21' E 011°03'10 9.8
2016-May-24 16:33N 55°11' E 011°05'1010.2
2016-May-24 15:33N 55°01' E 010°60'10 9.6
2016-May-24 14:33N 54°53' E 010°51'1010.4
2016-May-24 13:34N 54°43' E 010°47'9 9.2
2016-May-24 12:34N 54°37' E 010°58'1010.5
2016-May-24 11:34N 54°34' E 011°16'1110.8
2016-May-24 10:34N 54°30' E 011°33'1110.8
2016-May-24 09:33N 54°26' E 011°50'1110.8
2016-May-24 08:33N 54°27' E 012°09'1211.6
2016-May-24 07:33N 54°38' E 012°17'4711.8
2016-May-24 03:31N 54°58' E 013°31'1111.8
2016-May-24 02:33N 55°02' E 013°50'1111.4
2016-May-24 01:34N 55°07' E 014°08'1211.6
2016-May-24 00:34N 55°16' E 014°21'1211.8
2016-May-23 23:33N 55°25' E 014°33'1111.5
2016-May-23 22:34N 55°31' E 014°50'1211.7
2016-May-23 21:33N 55°36' E 015°09'1211.7
2016-May-23 20:33N 55°40' E 015°29'1211.8
2016-May-23 19:30N 55°43' E 015°50'  
Track history (hours):
 
Tides and Currents Weather Stations Pressure Air Temp Water Temp Dewpoint Dewpoint Depression Visibility Wind Speed Wind Dir Waves Ship Positions

Stamford Pioneer

Last reported at 2016-May-29 01:32 UTC. Time now 2016-May-30 16:28 UTC.
Position N 48°57' W 005°43'.

Length 180 m; draft 10 m.

Type: Cargo ship. MMSI: 477462800.

Date/timePositionNaut miles runAvg speedWind from/ knotsBaromVisibWave heightAir tempDewpointWater temp
2016-May-29 01:32N 48°57' W 005°43'1514.3
2016-May-29 00:29N 49°05' W 005°24'8311.9
2016-May-28 17:32N 49°47' W 003°35'1212.6
2016-May-28 16:33N 49°53' W 003°18'1212.4
2016-May-28 15:33N 49°59' W 003°01'1211.7
2016-May-28 14:33N 50°03' W 002°44'9111.1
2016-May-28 06:20N 50°26' W 000°26'1013.1
2016-May-28 05:33N 50°28' W 000°11'1312.6
2016-May-28 04:33N 50°32' E 000°08'4610.9
2016-May-28 00:18N 50°53' E 001°13'912.5
2016-May-27 23:33N 50°59' E 001°24'1414.3
2016-May-27 22:34N 51°10' E 001°40'1313.3
2016-May-27 21:33N 51°20' E 001°52'1211.8
2016-May-27 20:33N 51°31' E 002°02'1111.1
2016-May-27 19:33N 51°39' E 002°14'1110.4
2016-May-27 18:31N 51°47' E 002°25'7011.3
2016-May-27 12:21N 52°42' E 003°36'2712.2
2016-May-27 10:10N 53°01' E 004°07'910.8
2016-May-27 09:19N 53°07' E 004°18'3210.0
2016-May-27 06:09N 53°36' E 004°40'911.8
2016-May-27 05:25N 53°44' E 004°45'1112.1
2016-May-27 04:28N 53°55' E 004°52'1111.9
2016-May-27 03:33N 54°05' E 004°58'1211.7
2016-May-27 02:33N 54°15' E 005°09'1211.6
2016-May-27 01:33N 54°24' E 005°22'10411.2
2016-May-26 16:17N 55°54' E 006°53'911.3
2016-May-26 15:30N 56°02' E 007°00'4811.4
2016-May-26 11:16N 56°44' E 007°43'10711.0
2016-May-26 01:29N 57°47' E 010°24'1112.3
2016-May-26 00:33N 57°47' E 010°46'8 8.4
2016-May-25 23:33N 57°40' E 010°39'9 0.6
2016-May-25 09:09N 57°37' E 010°55'711.8
2016-May-25 08:33N 57°34' E 011°07'1111.0
2016-May-25 07:33N 57°29' E 011°26'1010.3
2016-May-25 06:34N 57°19' E 011°32'1110.4
2016-May-25 05:33N 57°09' E 011°39'1010.5
2016-May-25 04:33N 56°60' E 011°45'1110.9
2016-May-25 03:33N 56°49' E 011°52'10 9.5
2016-May-25 02:29N 56°40' E 011°44'1011.1
2016-May-25 01:33N 56°33' E 011°30'9 9.5
2016-May-25 00:33N 56°27' E 011°17'10 8.9
2016-May-24 23:26N 56°19' E 011°06'58 9.9
2016-May-24 17:33N 55°21' E 011°03'10 9.8
2016-May-24 16:33N 55°11' E 011°05'1010.2
2016-May-24 15:33N 55°01' E 010°60'10 9.6
2016-May-24 14:33N 54°53' E 010°51'1010.4
2016-May-24 13:34N 54°43' E 010°47'9 9.2
2016-May-24 12:34N 54°37' E 010°58'1010.5
2016-May-24 11:34N 54°34' E 011°16'1110.8
2016-May-24 10:34N 54°30' E 011°33'1110.8
2016-May-24 09:33N 54°26' E 011°50'1110.8
2016-May-24 08:33N 54°27' E 012°09'1211.6
2016-May-24 07:33N 54°38' E 012°17'4711.8
2016-May-24 03:31N 54°58' E 013°31'1111.8
2016-May-24 02:33N 55°02' E 013°50'1111.4
2016-May-24 01:34N 55°07' E 014°08'1211.6
2016-May-24 00:34N 55°16' E 014°21'1211.8
2016-May-23 23:33N 55°25' E 014°33'1111.5
2016-May-23 22:34N 55°31' E 014°50'1211.7
2016-May-23 21:33N 55°36' E 015°09'1211.7
2016-May-23 20:33N 55°40' E 015°29'1211.8
2016-May-23 19:30N 55°43' E 015°50'  

Dump ship's entire track history